sensor_id;sensor_type;location;lat;lon;timestamp;P1;durP1;ratioP1;P2;durP2;ratioP2
31730;SDS011;18310;55.586;12.286;2023-06-24T00:02:50;8.82;;;4.47;;
31730;SDS011;18310;55.586;12.286;2023-06-24T00:05:55;8.75;;;4.38;;
31730;SDS011;18310;55.586;12.286;2023-06-24T00:09:00;9.25;;;4.78;;
31730;SDS011;18310;55.586;12.286;2023-06-24T00:12:05;7.93;;;4.78;;
31730;SDS011;18310;55.586;12.286;2023-06-24T00:15:09;6.65;;;3.83;;
31730;SDS011;18310;55.586;12.286;2023-06-24T00:18:13;6.32;;;4.32;;
31730;SDS011;18310;55.586;12.286;2023-06-24T00:21:16;11.02;;;4.57;;
31730;SDS011;18310;55.586;12.286;2023-06-24T00:24:21;8.40;;;4.33;;
31730;SDS011;18310;55.586;12.286;2023-06-24T00:27:27;6.28;;;3.88;;
31730;SDS011;18310;55.586;12.286;2023-06-24T00:30:30;9.00;;;4.60;;
31730;SDS011;18310;55.586;12.286;2023-06-24T00:33:34;7.35;;;4.70;;
31730;SDS011;18310;55.586;12.286;2023-06-24T00:36:38;11.93;;;4.63;;
31730;SDS011;18310;55.586;12.286;2023-06-24T00:39:42;16.30;;;5.30;;
31730;SDS011;18310;55.586;12.286;2023-06-24T00:42:46;7.88;;;4.80;;
31730;SDS011;18310;55.586;12.286;2023-06-24T00:45:49;8.32;;;4.45;;
31730;SDS011;18310;55.586;12.286;2023-06-24T00:48:55;7.75;;;4.57;;
31730;SDS011;18310;55.586;12.286;2023-06-24T00:55:04;7.45;;;3.97;;
31730;SDS011;18310;55.586;12.286;2023-06-24T00:58:08;7.53;;;4.43;;
31730;SDS011;18310;55.586;12.286;2023-06-24T01:01:12;10.35;;;4.60;;
31730;SDS011;18310;55.586;12.286;2023-06-24T01:07:19;12.93;;;4.20;;
31730;SDS011;18310;55.586;12.286;2023-06-24T01:13:28;7.82;;;4.70;;
31730;SDS011;18310;55.586;12.286;2023-06-24T01:16:33;12.23;;;4.87;;
31730;SDS011;18310;55.586;12.286;2023-06-24T01:19:59;6.20;;;4.20;;
31730;SDS011;18310;55.586;12.286;2023-06-24T01:26:56;8.05;;;4.75;;
31730;SDS011;18310;55.586;12.286;2023-06-24T01:30:20;8.73;;;4.32;;
31730;SDS011;18310;55.586;12.286;2023-06-24T01:33:42;10.27;;;4.70;;
31730;SDS011;18310;55.586;12.286;2023-06-24T01:36:51;8.65;;;4.50;;
31730;SDS011;18310;55.586;12.286;2023-06-24T01:40:04;9.10;;;4.90;;
31730;SDS011;18310;55.586;12.286;2023-06-24T01:43:12;7.95;;;4.95;;
31730;SDS011;18310;55.586;12.286;2023-06-24T01:46:17;10.43;;;5.00;;
31730;SDS011;18310;55.586;12.286;2023-06-24T01:49:26;7.43;;;5.13;;
31730;SDS011;18310;55.586;12.286;2023-06-24T01:52:32;7.60;;;5.47;;
31730;SDS011;18310;55.586;12.286;2023-06-24T01:55:37;9.15;;;5.55;;
31730;SDS011;18310;55.586;12.286;2023-06-24T01:58:41;8.38;;;4.88;;
31730;SDS011;18310;55.586;12.286;2023-06-24T02:01:46;7.07;;;4.75;;
31730;SDS011;18310;55.586;12.286;2023-06-24T02:04:51;7.47;;;4.78;;
31730;SDS011;18310;55.586;12.286;2023-06-24T02:07:57;8.65;;;5.05;;
31730;SDS011;18310;55.586;12.286;2023-06-24T02:14:04;7.25;;;4.75;;
31730;SDS011;18310;55.586;12.286;2023-06-24T02:17:09;10.40;;;5.28;;
31730;SDS011;18310;55.586;12.286;2023-06-24T02:20:15;9.35;;;5.18;;
31730;SDS011;18310;55.586;12.286;2023-06-24T02:23:20;9.40;;;4.75;;
31730;SDS011;18310;55.586;12.286;2023-06-24T02:26:25;9.18;;;5.00;;
31730;SDS011;18310;55.586;12.286;2023-06-24T02:29:28;7.80;;;5.03;;
31730;SDS011;18310;55.586;12.286;2023-06-24T02:32:33;8.68;;;5.53;;
31730;SDS011;18310;55.586;12.286;2023-06-24T02:35:39;9.48;;;5.22;;
31730;SDS011;18310;55.586;12.286;2023-06-24T02:39:07;11.10;;;6.13;;
31730;SDS011;18310;55.586;12.286;2023-06-24T02:42:10;9.38;;;6.07;;
31730;SDS011;18310;55.586;12.286;2023-06-24T02:45:14;8.13;;;5.30;;
31730;SDS011;18310;55.586;12.286;2023-06-24T02:51:22;11.82;;;6.13;;
31730;SDS011;18310;55.586;12.286;2023-06-24T02:54:27;13.13;;;5.40;;
31730;SDS011;18310;55.586;12.286;2023-06-24T02:57:30;10.98;;;6.00;;
31730;SDS011;18310;55.586;12.286;2023-06-24T03:00:35;10.00;;;6.55;;
31730;SDS011;18310;55.586;12.286;2023-06-24T03:03:38;14.70;;;6.38;;
31730;SDS011;18310;55.586;12.286;2023-06-24T03:06:43;13.23;;;5.70;;
31730;SDS011;18310;55.586;12.286;2023-06-24T03:09:48;8.20;;;5.68;;
31730;SDS011;18310;55.586;12.286;2023-06-24T03:12:52;11.73;;;5.93;;
31730;SDS011;18310;55.586;12.286;2023-06-24T03:15:55;9.18;;;6.00;;
31730;SDS011;18310;55.586;12.286;2023-06-24T03:18:59;11.60;;;5.50;;
31730;SDS011;18310;55.586;12.286;2023-06-24T03:22:02;9.43;;;5.65;;
31730;SDS011;18310;55.586;12.286;2023-06-24T03:25:08;14.65;;;5.78;;
31730;SDS011;18310;55.586;12.286;2023-06-24T03:28:11;10.45;;;5.88;;
31730;SDS011;18310;55.586;12.286;2023-06-24T03:31:14;8.52;;;5.40;;
31730;SDS011;18310;55.586;12.286;2023-06-24T03:34:17;8.75;;;5.53;;
31730;SDS011;18310;55.586;12.286;2023-06-24T03:37:20;11.10;;;5.85;;
31730;SDS011;18310;55.586;12.286;2023-06-24T03:40:25;9.80;;;6.55;;
31730;SDS011;18310;55.586;12.286;2023-06-24T03:43:28;9.25;;;6.15;;
31730;SDS011;18310;55.586;12.286;2023-06-24T03:46:31;10.30;;;6.03;;
31730;SDS011;18310;55.586;12.286;2023-06-24T03:49:34;9.87;;;6.10;;
31730;SDS011;18310;55.586;12.286;2023-06-24T03:52:37;12.50;;;6.35;;
31730;SDS011;18310;55.586;12.286;2023-06-24T03:55:42;11.90;;;6.05;;
31730;SDS011;18310;55.586;12.286;2023-06-24T03:58:45;7.68;;;5.13;;
31730;SDS011;18310;55.586;12.286;2023-06-24T04:01:48;11.77;;;6.47;;
31730;SDS011;18310;55.586;12.286;2023-06-24T04:04:53;10.82;;;6.20;;
31730;SDS011;18310;55.586;12.286;2023-06-24T04:07:57;9.05;;;6.60;;
31730;SDS011;18310;55.586;12.286;2023-06-24T04:11:02;12.20;;;7.05;;
31730;SDS011;18310;55.586;12.286;2023-06-24T04:14:05;11.40;;;6.57;;
31730;SDS011;18310;55.586;12.286;2023-06-24T04:17:11;12.65;;;6.43;;
31730;SDS011;18310;55.586;12.286;2023-06-24T04:20:14;9.88;;;6.25;;
31730;SDS011;18310;55.586;12.286;2023-06-24T04:23:17;10.80;;;5.93;;
31730;SDS011;18310;55.586;12.286;2023-06-24T04:26:43;13.27;;;6.05;;
31730;SDS011;18310;55.586;12.286;2023-06-24T04:29:46;6.97;;;5.10;;
31730;SDS011;18310;55.586;12.286;2023-06-24T04:32:49;10.10;;;6.20;;
31730;SDS011;18310;55.586;12.286;2023-06-24T04:35:52;9.05;;;5.45;;
31730;SDS011;18310;55.586;12.286;2023-06-24T04:38:58;11.50;;;5.57;;
31730;SDS011;18310;55.586;12.286;2023-06-24T04:42:03;5.70;;;4.90;;
31730;SDS011;18310;55.586;12.286;2023-06-24T04:45:07;9.25;;;5.15;;
31730;SDS011;18310;55.586;12.286;2023-06-24T04:48:11;10.15;;;5.22;;
31730;SDS011;18310;55.586;12.286;2023-06-24T04:51:14;7.33;;;5.00;;
31730;SDS011;18310;55.586;12.286;2023-06-24T04:54:17;6.80;;;5.13;;
31730;SDS011;18310;55.586;12.286;2023-06-24T04:57:25;9.10;;;5.18;;
31730;SDS011;18310;55.586;12.286;2023-06-24T05:00:30;9.95;;;5.15;;
31730;SDS011;18310;55.586;12.286;2023-06-24T05:03:33;7.23;;;5.00;;
31730;SDS011;18310;55.586;12.286;2023-06-24T05:06:36;7.03;;;4.90;;
31730;SDS011;18310;55.586;12.286;2023-06-24T05:09:39;8.90;;;4.60;;
31730;SDS011;18310;55.586;12.286;2023-06-24T05:12:44;8.17;;;4.80;;
31730;SDS011;18310;55.586;12.286;2023-06-24T05:15:47;9.95;;;4.55;;
31730;SDS011;18310;55.586;12.286;2023-06-24T05:18:50;8.13;;;4.63;;
31730;SDS011;18310;55.586;12.286;2023-06-24T05:21:53;7.37;;;4.23;;
31730;SDS011;18310;55.586;12.286;2023-06-24T05:24:56;10.20;;;4.80;;
31730;SDS011;18310;55.586;12.286;2023-06-24T05:28:00;6.40;;;4.30;;
31730;SDS011;18310;55.586;12.286;2023-06-24T05:31:04;9.18;;;4.15;;
31730;SDS011;18310;55.586;12.286;2023-06-24T05:34:07;7.63;;;4.03;;
31730;SDS011;18310;55.586;12.286;2023-06-24T05:37:10;6.28;;;3.80;;
31730;SDS011;18310;55.586;12.286;2023-06-24T05:40:13;7.80;;;4.13;;
31730;SDS011;18310;55.586;12.286;2023-06-24T05:43:19;8.20;;;4.47;;
31730;SDS011;18310;55.586;12.286;2023-06-24T05:46:22;6.05;;;4.07;;
31730;SDS011;18310;55.586;12.286;2023-06-24T05:49:25;7.97;;;4.38;;
31730;SDS011;18310;55.586;12.286;2023-06-24T05:52:28;8.27;;;4.33;;
31730;SDS011;18310;55.586;12.286;2023-06-24T05:55:31;10.40;;;4.35;;
31730;SDS011;18310;55.586;12.286;2023-06-24T05:58:36;8.57;;;4.22;;
31730;SDS011;18310;55.586;12.286;2023-06-24T06:01:40;6.80;;;4.13;;
31730;SDS011;18310;55.586;12.286;2023-06-24T06:04:43;5.50;;;4.18;;
31730;SDS011;18310;55.586;12.286;2023-06-24T06:07:47;9.48;;;4.53;;
31730;SDS011;18310;55.586;12.286;2023-06-24T06:10:50;7.20;;;4.47;;
31730;SDS011;18310;55.586;12.286;2023-06-24T06:13:56;9.88;;;3.70;;
31730;SDS011;18310;55.586;12.286;2023-06-24T06:17:19;6.88;;;3.90;;
31730;SDS011;18310;55.586;12.286;2023-06-24T06:20:23;10.73;;;4.20;;
31730;SDS011;18310;55.586;12.286;2023-06-24T06:23:26;8.57;;;3.97;;
31730;SDS011;18310;55.586;12.286;2023-06-24T06:26:29;8.17;;;4.03;;
31730;SDS011;18310;55.586;12.286;2023-06-24T06:29:32;9.93;;;3.60;;
31730;SDS011;18310;55.586;12.286;2023-06-24T06:32:36;9.55;;;3.38;;
31730;SDS011;18310;55.586;12.286;2023-06-24T06:35:40;8.82;;;3.55;;
31730;SDS011;18310;55.586;12.286;2023-06-24T06:38:43;8.60;;;3.58;;
31730;SDS011;18310;55.586;12.286;2023-06-24T06:41:46;5.83;;;3.83;;
31730;SDS011;18310;55.586;12.286;2023-06-24T06:44:49;5.70;;;3.50;;
31730;SDS011;18310;55.586;12.286;2023-06-24T06:47:54;6.05;;;3.72;;
31730;SDS011;18310;55.586;12.286;2023-06-24T06:50:57;5.55;;;3.38;;
31730;SDS011;18310;55.586;12.286;2023-06-24T06:54:00;6.20;;;3.20;;
31730;SDS011;18310;55.586;12.286;2023-06-24T06:57:03;9.27;;;3.27;;
31730;SDS011;18310;55.586;12.286;2023-06-24T07:00:08;5.57;;;3.40;;
31730;SDS011;18310;55.586;12.286;2023-06-24T07:03:13;5.28;;;2.85;;
31730;SDS011;18310;55.586;12.286;2023-06-24T07:06:17;7.40;;;3.58;;
31730;SDS011;18310;55.586;12.286;2023-06-24T07:09:20;7.95;;;3.30;;
31730;SDS011;18310;55.586;12.286;2023-06-24T07:12:23;7.27;;;3.43;;
31730;SDS011;18310;55.586;12.286;2023-06-24T07:15:26;4.97;;;2.70;;
31730;SDS011;18310;55.586;12.286;2023-06-24T07:18:31;5.90;;;3.30;;
31730;SDS011;18310;55.586;12.286;2023-06-24T07:21:34;6.50;;;3.13;;
31730;SDS011;18310;55.586;12.286;2023-06-24T07:24:37;9.50;;;3.70;;
31730;SDS011;18310;55.586;12.286;2023-06-24T07:27:41;7.18;;;3.65;;
31730;SDS011;18310;55.586;12.286;2023-06-24T07:30:44;9.13;;;2.83;;
31730;SDS011;18310;55.586;12.286;2023-06-24T07:33:49;4.65;;;2.42;;
31730;SDS011;18310;55.586;12.286;2023-06-24T07:36:52;7.15;;;2.42;;
31730;SDS011;18310;55.586;12.286;2023-06-24T07:39:55;5.30;;;3.07;;
31730;SDS011;18310;55.586;12.286;2023-06-24T07:42:58;5.20;;;2.83;;
31730;SDS011;18310;55.586;12.286;2023-06-24T07:46:01;6.47;;;2.72;;
31730;SDS011;18310;55.586;12.286;2023-06-24T07:49:06;3.50;;;1.98;;
31730;SDS011;18310;55.586;12.286;2023-06-24T07:52:09;6.15;;;2.55;;
31730;SDS011;18310;55.586;12.286;2023-06-24T07:55:12;5.47;;;2.63;;
31730;SDS011;18310;55.586;12.286;2023-06-24T07:58:15;4.17;;;2.40;;
31730;SDS011;18310;55.586;12.286;2023-06-24T08:01:20;4.55;;;2.85;;
31730;SDS011;18310;55.586;12.286;2023-06-24T08:04:25;4.63;;;2.53;;
31730;SDS011;18310;55.586;12.286;2023-06-24T08:07:29;5.00;;;2.75;;
31730;SDS011;18310;55.586;12.286;2023-06-24T08:10:32;5.20;;;2.50;;
31730;SDS011;18310;55.586;12.286;2023-06-24T08:13:35;8.10;;;3.20;;
31730;SDS011;18310;55.586;12.286;2023-06-24T08:16:38;4.07;;;2.57;;
31730;SDS011;18310;55.586;12.286;2023-06-24T08:19:43;6.13;;;2.93;;
31730;SDS011;18310;55.586;12.286;2023-06-24T08:22:46;4.82;;;2.30;;
31730;SDS011;18310;55.586;12.286;2023-06-24T08:25:49;3.38;;;2.10;;
31730;SDS011;18310;55.586;12.286;2023-06-24T08:30:20;3.90;;;2.10;;
31730;SDS011;18310;55.586;12.286;2023-06-24T08:33:24;4.30;;;2.20;;
31730;SDS011;18310;55.586;12.286;2023-06-24T08:36:27;8.10;;;2.00;;
31730;SDS011;18310;55.586;12.286;2023-06-24T08:39:31;4.25;;;2.28;;
31730;SDS011;18310;55.586;12.286;2023-06-24T08:42:35;5.00;;;2.03;;
31730;SDS011;18310;55.586;12.286;2023-06-24T08:45:39;4.27;;;1.90;;
31730;SDS011;18310;55.586;12.286;2023-06-24T08:48:43;3.25;;;1.67;;
31730;SDS011;18310;55.586;12.286;2023-06-24T08:51:49;5.28;;;1.90;;
31730;SDS011;18310;55.586;12.286;2023-06-24T08:54:57;4.88;;;2.10;;
31730;SDS011;18310;55.586;12.286;2023-06-24T08:59:06;2.78;;;1.88;;
31730;SDS011;18310;55.586;12.286;2023-06-24T09:02:09;11.02;;;2.38;;
31730;SDS011;18310;55.586;12.286;2023-06-24T09:05:13;4.25;;;2.20;;
31730;SDS011;18310;55.586;12.286;2023-06-24T09:08:16;4.03;;;2.17;;
31730;SDS011;18310;55.586;12.286;2023-06-24T09:11:22;5.05;;;1.63;;
31730;SDS011;18310;55.586;12.286;2023-06-24T09:14:28;3.08;;;1.75;;
31730;SDS011;18310;55.586;12.286;2023-06-24T09:17:32;4.25;;;1.63;;
31730;SDS011;18310;55.586;12.286;2023-06-24T09:20:36;3.70;;;1.67;;
31730;SDS011;18310;55.586;12.286;2023-06-24T09:23:46;3.50;;;1.75;;
31730;SDS011;18310;55.586;12.286;2023-06-24T09:26:49;3.45;;;1.60;;
31730;SDS011;18310;55.586;12.286;2023-06-24T09:29:54;5.80;;;1.60;;
31730;SDS011;18310;55.586;12.286;2023-06-24T09:32:57;4.95;;;1.73;;
31730;SDS011;18310;55.586;12.286;2023-06-24T09:36:02;6.53;;;1.73;;
31730;SDS011;18310;55.586;12.286;2023-06-24T09:39:07;2.55;;;1.40;;
31730;SDS011;18310;55.586;12.286;2023-06-24T09:42:29;4.30;;;1.70;;
31730;SDS011;18310;55.586;12.286;2023-06-24T09:46:14;3.13;;;1.55;;
31730;SDS011;18310;55.586;12.286;2023-06-24T09:49:18;3.70;;;1.33;;
31730;SDS011;18310;55.586;12.286;2023-06-24T09:52:22;4.03;;;1.70;;
31730;SDS011;18310;55.586;12.286;2023-06-24T09:55:28;2.63;;;1.33;;
31730;SDS011;18310;55.586;12.286;2023-06-24T09:58:31;3.50;;;1.58;;
31730;SDS011;18310;55.586;12.286;2023-06-24T10:01:39;3.42;;;1.58;;
31730;SDS011;18310;55.586;12.286;2023-06-24T10:04:43;3.38;;;1.60;;
31730;SDS011;18310;55.586;12.286;2023-06-24T10:08:39;4.07;;;1.80;;
31730;SDS011;18310;55.586;12.286;2023-06-24T10:11:42;5.25;;;1.70;;
31730;SDS011;18310;55.586;12.286;2023-06-24T10:14:47;3.47;;;1.90;;
31730;SDS011;18310;55.586;12.286;2023-06-24T10:17:50;6.70;;;1.70;;
31730;SDS011;18310;55.586;12.286;2023-06-24T10:21:12;4.03;;;1.50;;
31730;SDS011;18310;55.586;12.286;2023-06-24T10:24:30;2.25;;;1.30;;
31730;SDS011;18310;55.586;12.286;2023-06-24T10:27:38;3.08;;;1.17;;
31730;SDS011;18310;55.586;12.286;2023-06-24T10:30:53;2.22;;;1.40;;
31730;SDS011;18310;55.586;12.286;2023-06-24T10:33:58;3.97;;;1.63;;
31730;SDS011;18310;55.586;12.286;2023-06-24T10:37:02;3.55;;;1.45;;
31730;SDS011;18310;55.586;12.286;2023-06-24T10:40:08;3.22;;;1.40;;
31730;SDS011;18310;55.586;12.286;2023-06-24T10:43:23;6.53;;;1.40;;
31730;SDS011;18310;55.586;12.286;2023-06-24T10:46:28;2.58;;;1.30;;
31730;SDS011;18310;55.586;12.286;2023-06-24T10:49:35;3.00;;;1.30;;
31730;SDS011;18310;55.586;12.286;2023-06-24T10:52:39;3.65;;;1.20;;
31730;SDS011;18310;55.586;12.286;2023-06-24T10:55:44;3.97;;;1.60;;
31730;SDS011;18310;55.586;12.286;2023-06-24T10:58:54;2.75;;;1.23;;
31730;SDS011;18310;55.586;12.286;2023-06-24T11:01:58;5.20;;;1.25;;
31730;SDS011;18310;55.586;12.286;2023-06-24T11:05:01;3.73;;;1.10;;
31730;SDS011;18310;55.586;12.286;2023-06-24T11:08:06;3.83;;;1.30;;
31730;SDS011;18310;55.586;12.286;2023-06-24T11:11:11;3.20;;;1.27;;
31730;SDS011;18310;55.586;12.286;2023-06-24T11:14:21;3.22;;;1.40;;
31730;SDS011;18310;55.586;12.286;2023-06-24T11:17:25;4.60;;;1.17;;
31730;SDS011;18310;55.586;12.286;2023-06-24T11:23:31;4.63;;;1.60;;
31730;SDS011;18310;55.586;12.286;2023-06-24T11:26:36;3.67;;;1.20;;
31730;SDS011;18310;55.586;12.286;2023-06-24T11:29:40;5.88;;;1.20;;
31730;SDS011;18310;55.586;12.286;2023-06-24T11:32:44;2.17;;;1.00;;
31730;SDS011;18310;55.586;12.286;2023-06-24T11:35:49;2.75;;;1.20;;
31730;SDS011;18310;55.586;12.286;2023-06-24T11:38:52;1.90;;;1.07;;
31730;SDS011;18310;55.586;12.286;2023-06-24T11:41:57;2.03;;;1.00;;
31730;SDS011;18310;55.586;12.286;2023-06-24T11:45:00;2.40;;;1.15;;
31730;SDS011;18310;55.586;12.286;2023-06-24T11:48:04;3.35;;;1.10;;
31730;SDS011;18310;55.586;12.286;2023-06-24T11:51:12;2.83;;;1.27;;
31730;SDS011;18310;55.586;12.286;2023-06-24T11:54:16;3.38;;;1.30;;
31730;SDS011;18310;55.586;12.286;2023-06-24T11:57:22;3.50;;;1.42;;
31730;SDS011;18310;55.586;12.286;2023-06-24T12:03:59;4.28;;;1.38;;
31730;SDS011;18310;55.586;12.286;2023-06-24T12:07:03;3.60;;;1.50;;
31730;SDS011;18310;55.586;12.286;2023-06-24T12:10:07;2.88;;;1.70;;
31730;SDS011;18310;55.586;12.286;2023-06-24T12:13:12;3.25;;;1.20;;
31730;SDS011;18310;55.586;12.286;2023-06-24T12:16:15;5.63;;;1.30;;
31730;SDS011;18310;55.586;12.286;2023-06-24T12:19:18;3.35;;;1.40;;
31730;SDS011;18310;55.586;12.286;2023-06-24T12:22:22;6.63;;;1.40;;
31730;SDS011;18310;55.586;12.286;2023-06-24T12:25:25;3.10;;;1.27;;
31730;SDS011;18310;55.586;12.286;2023-06-24T12:28:30;1.70;;;0.98;;
31730;SDS011;18310;55.586;12.286;2023-06-24T12:31:33;4.38;;;1.45;;
31730;SDS011;18310;55.586;12.286;2023-06-24T12:34:36;1.90;;;1.03;;
31730;SDS011;18310;55.586;12.286;2023-06-24T12:40:13;3.08;;;1.52;;
31730;SDS011;18310;55.586;12.286;2023-06-24T12:43:16;3.50;;;1.63;;
31730;SDS011;18310;55.586;12.286;2023-06-24T12:46:20;7.25;;;2.17;;
31730;SDS011;18310;55.586;12.286;2023-06-24T12:49:23;3.85;;;1.50;;
31730;SDS011;18310;55.586;12.286;2023-06-24T12:52:26;4.78;;;1.63;;
31730;SDS011;18310;55.586;12.286;2023-06-24T12:55:31;4.37;;;2.00;;
31730;SDS011;18310;55.586;12.286;2023-06-24T12:58:34;5.68;;;1.83;;
31730;SDS011;18310;55.586;12.286;2023-06-24T13:01:37;2.30;;;1.40;;
31730;SDS011;18310;55.586;12.286;2023-06-24T13:04:40;6.53;;;1.92;;
31730;SDS011;18310;55.586;12.286;2023-06-24T13:07:43;4.65;;;1.73;;
31730;SDS011;18310;55.586;12.286;2023-06-24T13:10:48;2.95;;;1.55;;
31730;SDS011;18310;55.586;12.286;2023-06-24T13:13:51;3.35;;;1.27;;
31730;SDS011;18310;55.586;12.286;2023-06-24T13:16:54;2.83;;;1.57;;
31730;SDS011;18310;55.586;12.286;2023-06-24T13:19:57;8.40;;;1.80;;
31730;SDS011;18310;55.586;12.286;2023-06-24T13:23:00;4.60;;;2.10;;
31730;SDS011;18310;55.586;12.286;2023-06-24T13:26:05;3.75;;;1.50;;
31730;SDS011;18310;55.586;12.286;2023-06-24T13:29:08;4.13;;;1.58;;
31730;SDS011;18310;55.586;12.286;2023-06-24T13:32:11;3.90;;;1.37;;
31730;SDS011;18310;55.586;12.286;2023-06-24T13:35:15;3.03;;;1.60;;
31730;SDS011;18310;55.586;12.286;2023-06-24T13:38:18;2.65;;;1.50;;
31730;SDS011;18310;55.586;12.286;2023-06-24T13:41:23;4.13;;;1.85;;
31730;SDS011;18310;55.586;12.286;2023-06-24T13:44:27;5.22;;;2.03;;
31730;SDS011;18310;55.586;12.286;2023-06-24T13:47:31;5.13;;;1.98;;
31730;SDS011;18310;55.586;12.286;2023-06-24T13:50:34;4.22;;;1.70;;
31730;SDS011;18310;55.586;12.286;2023-06-24T13:53:37;3.10;;;1.55;;
31730;SDS011;18310;55.586;12.286;2023-06-24T13:56:42;3.90;;;1.80;;
31730;SDS011;18310;55.586;12.286;2023-06-24T13:59:45;3.08;;;1.42;;
31730;SDS011;18310;55.586;12.286;2023-06-24T14:02:48;3.05;;;1.65;;
31730;SDS011;18310;55.586;12.286;2023-06-24T14:05:52;15.52;;;2.00;;
31730;SDS011;18310;55.586;12.286;2023-06-24T14:08:55;3.53;;;1.70;;
31730;SDS011;18310;55.586;12.286;2023-06-24T14:12:00;6.67;;;2.07;;
31730;SDS011;18310;55.586;12.286;2023-06-24T14:15:04;3.25;;;1.70;;
31730;SDS011;18310;55.586;12.286;2023-06-24T14:21:10;2.80;;;1.55;;
31730;SDS011;18310;55.586;12.286;2023-06-24T14:24:13;3.42;;;1.63;;
31730;SDS011;18310;55.586;12.286;2023-06-24T14:27:19;4.57;;;2.08;;
31730;SDS011;18310;55.586;12.286;2023-06-24T14:30:22;3.83;;;1.67;;
31730;SDS011;18310;55.586;12.286;2023-06-24T14:33:25;2.92;;;1.40;;
31730;SDS011;18310;55.586;12.286;2023-06-24T14:36:29;4.80;;;1.90;;
31730;SDS011;18310;55.586;12.286;2023-06-24T14:39:32;3.13;;;1.63;;
31730;SDS011;18310;55.586;12.286;2023-06-24T14:42:36;3.33;;;1.80;;
31730;SDS011;18310;55.586;12.286;2023-06-24T14:45:39;3.53;;;1.70;;
31730;SDS011;18310;55.586;12.286;2023-06-24T14:48:42;2.93;;;1.57;;
31730;SDS011;18310;55.586;12.286;2023-06-24T14:51:45;2.80;;;1.43;;
31730;SDS011;18310;55.586;12.286;2023-06-24T14:54:48;3.23;;;1.73;;
31730;SDS011;18310;55.586;12.286;2023-06-24T14:57:53;7.10;;;2.20;;
31730;SDS011;18310;55.586;12.286;2023-06-24T15:00:56;3.53;;;1.50;;
31730;SDS011;18310;55.586;12.286;2023-06-24T15:04:00;3.33;;;1.63;;
31730;SDS011;18310;55.586;12.286;2023-06-24T15:07:03;4.55;;;1.85;;
31730;SDS011;18310;55.586;12.286;2023-06-24T15:10:07;6.72;;;1.88;;
31730;SDS011;18310;55.586;12.286;2023-06-24T15:16:15;4.82;;;1.85;;
31730;SDS011;18310;55.586;12.286;2023-06-24T15:19:18;2.97;;;1.50;;
31730;SDS011;18310;55.586;12.286;2023-06-24T15:22:21;4.93;;;1.80;;
31730;SDS011;18310;55.586;12.286;2023-06-24T15:25:25;3.30;;;1.98;;
31730;SDS011;18310;55.586;12.286;2023-06-24T15:28:30;3.00;;;1.70;;
31730;SDS011;18310;55.586;12.286;2023-06-24T15:31:35;3.55;;;1.65;;
31730;SDS011;18310;55.586;12.286;2023-06-24T15:34:38;3.53;;;1.83;;
31730;SDS011;18310;55.586;12.286;2023-06-24T15:37:41;3.38;;;1.85;;
31730;SDS011;18310;55.586;12.286;2023-06-24T15:40:45;5.90;;;2.08;;
31730;SDS011;18310;55.586;12.286;2023-06-24T15:43:49;5.38;;;2.30;;
31730;SDS011;18310;55.586;12.286;2023-06-24T15:46:52;4.05;;;1.92;;
31730;SDS011;18310;55.586;12.286;2023-06-24T15:49:55;4.43;;;2.00;;
31730;SDS011;18310;55.586;12.286;2023-06-24T15:56:02;5.20;;;2.65;;
31730;SDS011;18310;55.586;12.286;2023-06-24T15:59:07;5.07;;;2.60;;
31730;SDS011;18310;55.586;12.286;2023-06-24T16:02:10;5.70;;;2.13;;
31730;SDS011;18310;55.586;12.286;2023-06-24T16:05:13;4.28;;;2.63;;
31730;SDS011;18310;55.586;12.286;2023-06-24T16:08:17;3.83;;;1.67;;
31730;SDS011;18310;55.586;12.286;2023-06-24T16:11:20;5.17;;;2.20;;
31730;SDS011;18310;55.586;12.286;2023-06-24T16:14:24;4.63;;;2.17;;
31730;SDS011;18310;55.586;12.286;2023-06-24T16:17:28;4.82;;;1.80;;
31730;SDS011;18310;55.586;12.286;2023-06-24T16:20:31;4.93;;;2.50;;
31730;SDS011;18310;55.586;12.286;2023-06-24T16:23:57;4.63;;;2.50;;
31730;SDS011;18310;55.586;12.286;2023-06-24T16:27:00;6.75;;;2.22;;
31730;SDS011;18310;55.586;12.286;2023-06-24T16:30:05;3.50;;;2.03;;
31730;SDS011;18310;55.586;12.286;2023-06-24T16:33:09;4.07;;;2.13;;
31730;SDS011;18310;55.586;12.286;2023-06-24T16:36:12;3.50;;;1.97;;
31730;SDS011;18310;55.586;12.286;2023-06-24T16:39:16;5.97;;;2.23;;
31730;SDS011;18310;55.586;12.286;2023-06-24T16:42:20;6.90;;;2.25;;
31730;SDS011;18310;55.586;12.286;2023-06-24T16:45:23;3.45;;;2.00;;
31730;SDS011;18310;55.586;12.286;2023-06-24T16:48:26;3.43;;;1.83;;
31730;SDS011;18310;55.586;12.286;2023-06-24T16:51:30;6.25;;;1.70;;
31730;SDS011;18310;55.586;12.286;2023-06-24T16:54:34;4.37;;;2.10;;
31730;SDS011;18310;55.586;12.286;2023-06-24T16:57:37;4.40;;;2.40;;
31730;SDS011;18310;55.586;12.286;2023-06-24T17:00:40;4.90;;;2.23;;
31730;SDS011;18310;55.586;12.286;2023-06-24T17:03:43;6.35;;;2.45;;
31730;SDS011;18310;55.586;12.286;2023-06-24T17:06:47;4.00;;;2.38;;
31730;SDS011;18310;55.586;12.286;2023-06-24T17:09:52;6.07;;;2.67;;
31730;SDS011;18310;55.586;12.286;2023-06-24T17:12:55;4.40;;;2.10;;
31730;SDS011;18310;55.586;12.286;2023-06-24T17:15:58;7.43;;;2.33;;
31730;SDS011;18310;55.586;12.286;2023-06-24T17:19:02;4.55;;;2.20;;
31730;SDS011;18310;55.586;12.286;2023-06-24T17:22:07;5.57;;;2.40;;
31730;SDS011;18310;55.586;12.286;2023-06-24T17:25:12;3.05;;;1.92;;
31730;SDS011;18310;55.586;12.286;2023-06-24T17:28:15;2.95;;;1.90;;
31730;SDS011;18310;55.586;12.286;2023-06-24T17:31:18;5.13;;;2.10;;
31730;SDS011;18310;55.586;12.286;2023-06-24T17:34:21;4.60;;;2.10;;
31730;SDS011;18310;55.586;12.286;2023-06-24T17:37:25;3.38;;;1.83;;
31730;SDS011;18310;55.586;12.286;2023-06-24T17:40:29;2.90;;;1.87;;
31730;SDS011;18310;55.586;12.286;2023-06-24T17:43:32;6.10;;;1.90;;
31730;SDS011;18310;55.586;12.286;2023-06-24T17:46:35;3.93;;;2.00;;
31730;SDS011;18310;55.586;12.286;2023-06-24T17:49:39;3.28;;;1.80;;
31730;SDS011;18310;55.586;12.286;2023-06-24T17:52:42;4.72;;;2.05;;
31730;SDS011;18310;55.586;12.286;2023-06-24T17:55:46;3.92;;;1.98;;
31730;SDS011;18310;55.586;12.286;2023-06-24T17:58:50;4.50;;;2.20;;
31730;SDS011;18310;55.586;12.286;2023-06-24T18:01:53;4.57;;;2.33;;
31730;SDS011;18310;55.586;12.286;2023-06-24T18:04:56;4.55;;;2.03;;
31730;SDS011;18310;55.586;12.286;2023-06-24T18:08:00;3.78;;;2.28;;
31730;SDS011;18310;55.586;12.286;2023-06-24T18:11:05;4.95;;;2.70;;
31730;SDS011;18310;55.586;12.286;2023-06-24T18:14:08;3.58;;;2.42;;
31730;SDS011;18310;55.586;12.286;2023-06-24T18:17:12;6.57;;;3.55;;
31730;SDS011;18310;55.586;12.286;2023-06-24T18:20:15;5.82;;;3.08;;
31730;SDS011;18310;55.586;12.286;2023-06-24T18:23:18;3.77;;;2.93;;
31730;SDS011;18310;55.586;12.286;2023-06-24T18:26:23;5.47;;;2.42;;
31730;SDS011;18310;55.586;12.286;2023-06-24T18:29:28;3.22;;;2.05;;
31730;SDS011;18310;55.586;12.286;2023-06-24T18:32:33;3.47;;;2.38;;
31730;SDS011;18310;55.586;12.286;2023-06-24T18:36:01;4.10;;;2.33;;
31730;SDS011;18310;55.586;12.286;2023-06-24T18:39:04;3.83;;;2.03;;
31730;SDS011;18310;55.586;12.286;2023-06-24T18:45:11;8.10;;;2.15;;
31730;SDS011;18310;55.586;12.286;2023-06-24T18:48:14;8.70;;;2.53;;
31730;SDS011;18310;55.586;12.286;2023-06-24T18:51:19;5.33;;;3.10;;
31730;SDS011;18310;55.586;12.286;2023-06-24T18:54:22;3.90;;;2.67;;
31730;SDS011;18310;55.586;12.286;2023-06-24T18:57:27;5.72;;;2.60;;
31730;SDS011;18310;55.586;12.286;2023-06-24T19:00:30;3.55;;;2.42;;